sensor_id;sensor_type;location;lat;lon;timestamp;P1;durP1;ratioP1;P2;durP2;ratioP2
32321;SDS011;61553;48.994;8.940;2022-08-02T00:01:33;2.22;;;1.30;;
32321;SDS011;61553;48.994;8.940;2022-08-02T00:03:59;5.05;;;1.38;;
32321;SDS011;61553;48.994;8.940;2022-08-02T00:06:25;3.17;;;1.33;;
32321;SDS011;61553;48.994;8.940;2022-08-02T00:08:50;4.38;;;1.50;;
32321;SDS011;61553;48.994;8.940;2022-08-02T00:11:18;2.38;;;1.17;;
32321;SDS011;61553;48.994;8.940;2022-08-02T00:13:44;3.55;;;1.20;;
32321;SDS011;61553;48.994;8.940;2022-08-02T00:16:09;2.50;;;1.40;;
32321;SDS011;61553;48.994;8.940;2022-08-02T00:18:35;2.30;;;1.25;;
32321;SDS011;61553;48.994;8.940;2022-08-02T00:21:01;3.70;;;1.40;;
32321;SDS011;61553;48.994;8.940;2022-08-02T00:23:26;3.75;;;1.40;;
32321;SDS011;61553;48.994;8.940;2022-08-02T00:25:52;2.88;;;1.20;;
32321;SDS011;61553;48.994;8.940;2022-08-02T00:28:17;1.83;;;1.23;;
32321;SDS011;61553;48.994;8.940;2022-08-02T00:30:43;1.88;;;1.10;;
32321;SDS011;61553;48.994;8.940;2022-08-02T00:33:09;1.80;;;1.15;;
32321;SDS011;61553;48.994;8.940;2022-08-02T00:35:34;2.92;;;1.60;;
32321;SDS011;61553;48.994;8.940;2022-08-02T00:38:01;3.63;;;1.42;;
32321;SDS011;61553;48.994;8.940;2022-08-02T00:40:27;2.30;;;1.20;;
32321;SDS011;61553;48.994;8.940;2022-08-02T00:43:09;3.05;;;1.13;;
32321;SDS011;61553;48.994;8.940;2022-08-02T00:45:38;2.38;;;1.42;;
32321;SDS011;61553;48.994;8.940;2022-08-02T00:48:06;5.53;;;1.60;;
32321;SDS011;61553;48.994;8.940;2022-08-02T00:50:33;3.42;;;1.45;;
32321;SDS011;61553;48.994;8.940;2022-08-02T00:53:00;2.88;;;1.60;;
32321;SDS011;61553;48.994;8.940;2022-08-02T00:55:26;3.50;;;1.10;;
32321;SDS011;61553;48.994;8.940;2022-08-02T00:57:53;5.57;;;2.85;;
32321;SDS011;61553;48.994;8.940;2022-08-02T01:00:19;1.52;;;1.10;;
32321;SDS011;61553;48.994;8.940;2022-08-02T01:02:45;2.92;;;1.58;;
32321;SDS011;61553;48.994;8.940;2022-08-02T01:05:11;3.72;;;1.45;;
32321;SDS011;61553;48.994;8.940;2022-08-02T01:07:37;3.90;;;1.60;;
32321;SDS011;61553;48.994;8.940;2022-08-02T01:10:03;4.65;;;1.55;;
32321;SDS011;61553;48.994;8.940;2022-08-02T01:12:30;3.47;;;1.58;;
32321;SDS011;61553;48.994;8.940;2022-08-02T01:14:56;3.00;;;1.75;;
32321;SDS011;61553;48.994;8.940;2022-08-02T01:17:31;2.63;;;1.25;;
32321;SDS011;61553;48.994;8.940;2022-08-02T01:20:11;3.65;;;1.50;;
32321;SDS011;61553;48.994;8.940;2022-08-02T01:25:31;3.90;;;1.60;;
32321;SDS011;61553;48.994;8.940;2022-08-02T01:28:25;3.50;;;1.40;;
32321;SDS011;61553;48.994;8.940;2022-08-02T01:31:01;2.58;;;1.60;;
32321;SDS011;61553;48.994;8.940;2022-08-02T01:33:35;2.88;;;1.63;;
32321;SDS011;61553;48.994;8.940;2022-08-02T01:36:29;2.22;;;1.60;;
32321;SDS011;61553;48.994;8.940;2022-08-02T01:39:02;1.80;;;1.17;;
32321;SDS011;61553;48.994;8.940;2022-08-02T01:41:29;3.88;;;2.13;;
32321;SDS011;61553;48.994;8.940;2022-08-02T01:43:57;4.07;;;1.58;;
32321;SDS011;61553;48.994;8.940;2022-08-02T01:46:26;3.05;;;1.75;;
32321;SDS011;61553;48.994;8.940;2022-08-02T01:48:54;2.70;;;1.70;;
32321;SDS011;61553;48.994;8.940;2022-08-02T01:51:22;4.28;;;1.80;;
32321;SDS011;61553;48.994;8.940;2022-08-02T01:54:09;3.67;;;1.60;;
32321;SDS011;61553;48.994;8.940;2022-08-02T01:56:38;4.63;;;1.73;;
32321;SDS011;61553;48.994;8.940;2022-08-02T01:59:05;3.17;;;2.00;;
32321;SDS011;61553;48.994;8.940;2022-08-02T02:01:34;4.97;;;2.10;;
32321;SDS011;61553;48.994;8.940;2022-08-02T02:04:01;3.35;;;1.90;;
32321;SDS011;61553;48.994;8.940;2022-08-02T02:06:28;4.18;;;2.15;;
32321;SDS011;61553;48.994;8.940;2022-08-02T02:08:56;3.63;;;2.20;;
32321;SDS011;61553;48.994;8.940;2022-08-02T02:11:24;3.72;;;2.38;;
32321;SDS011;61553;48.994;8.940;2022-08-02T02:13:50;3.63;;;1.95;;
32321;SDS011;61553;48.994;8.940;2022-08-02T02:16:17;5.18;;;2.15;;
32321;SDS011;61553;48.994;8.940;2022-08-02T02:18:45;4.75;;;2.20;;
32321;SDS011;61553;48.994;8.940;2022-08-02T02:21:12;3.60;;;1.90;;
32321;SDS011;61553;48.994;8.940;2022-08-02T02:23:38;4.82;;;1.98;;
32321;SDS011;61553;48.994;8.940;2022-08-02T02:26:04;4.38;;;2.10;;
32321;SDS011;61553;48.994;8.940;2022-08-02T02:28:31;4.10;;;1.90;;
32321;SDS011;61553;48.994;8.940;2022-08-02T02:31:02;3.17;;;2.08;;
32321;SDS011;61553;48.994;8.940;2022-08-02T02:33:31;5.28;;;2.55;;
32321;SDS011;61553;48.994;8.940;2022-08-02T02:35:59;4.18;;;2.10;;
32321;SDS011;61553;48.994;8.940;2022-08-02T02:38:27;4.75;;;2.38;;
32321;SDS011;61553;48.994;8.940;2022-08-02T02:40:56;4.15;;;2.15;;
32321;SDS011;61553;48.994;8.940;2022-08-02T02:43:26;3.35;;;1.77;;
32321;SDS011;61553;48.994;8.940;2022-08-02T02:45:54;6.47;;;3.67;;
32321;SDS011;61553;48.994;8.940;2022-08-02T02:48:20;7.05;;;2.95;;
32321;SDS011;61553;48.994;8.940;2022-08-02T02:50:46;3.90;;;2.13;;
32321;SDS011;61553;48.994;8.940;2022-08-02T02:53:13;3.60;;;2.00;;
32321;SDS011;61553;48.994;8.940;2022-08-02T02:55:42;5.13;;;2.20;;
32321;SDS011;61553;48.994;8.940;2022-08-02T02:58:08;3.85;;;2.42;;
32321;SDS011;61553;48.994;8.940;2022-08-02T03:00:35;4.30;;;2.30;;
32321;SDS011;61553;48.994;8.940;2022-08-02T03:03:19;4.32;;;2.30;;
32321;SDS011;61553;48.994;8.940;2022-08-02T03:05:45;4.57;;;2.17;;
32321;SDS011;61553;48.994;8.940;2022-08-02T03:08:11;4.55;;;2.60;;
32321;SDS011;61553;48.994;8.940;2022-08-02T03:10:37;3.63;;;1.98;;
32321;SDS011;61553;48.994;8.940;2022-08-02T03:13:03;4.10;;;2.10;;
32321;SDS011;61553;48.994;8.940;2022-08-02T03:15:29;4.13;;;2.28;;
32321;SDS011;61553;48.994;8.940;2022-08-02T03:17:56;3.88;;;2.20;;
32321;SDS011;61553;48.994;8.940;2022-08-02T03:20:21;4.97;;;2.40;;
32321;SDS011;61553;48.994;8.940;2022-08-02T03:22:47;3.55;;;2.10;;
32321;SDS011;61553;48.994;8.940;2022-08-02T03:25:13;4.50;;;2.67;;
32321;SDS011;61553;48.994;8.940;2022-08-02T03:27:40;4.53;;;2.85;;
32321;SDS011;61553;48.994;8.940;2022-08-02T03:30:08;4.45;;;2.60;;
32321;SDS011;61553;48.994;8.940;2022-08-02T03:32:35;7.47;;;3.17;;
32321;SDS011;61553;48.994;8.940;2022-08-02T03:35:03;4.70;;;2.78;;
32321;SDS011;61553;48.994;8.940;2022-08-02T03:37:30;6.13;;;2.92;;
32321;SDS011;61553;48.994;8.940;2022-08-02T03:39:57;4.68;;;2.92;;
32321;SDS011;61553;48.994;8.940;2022-08-02T03:42:25;5.22;;;3.03;;
32321;SDS011;61553;48.994;8.940;2022-08-02T03:44:52;5.63;;;2.85;;
32321;SDS011;61553;48.994;8.940;2022-08-02T03:47:19;7.47;;;3.03;;
32321;SDS011;61553;48.994;8.940;2022-08-02T03:49:46;6.65;;;3.42;;
32321;SDS011;61553;48.994;8.940;2022-08-02T03:52:12;5.80;;;3.45;;
32321;SDS011;61553;48.994;8.940;2022-08-02T03:54:38;5.05;;;2.88;;
32321;SDS011;61553;48.994;8.940;2022-08-02T03:57:04;6.82;;;3.10;;
32321;SDS011;61553;48.994;8.940;2022-08-02T03:59:44;5.32;;;3.15;;
32321;SDS011;61553;48.994;8.940;2022-08-02T04:02:10;6.32;;;3.08;;
32321;SDS011;61553;48.994;8.940;2022-08-02T04:04:37;6.03;;;3.28;;
32321;SDS011;61553;48.994;8.940;2022-08-02T04:07:03;4.95;;;3.22;;
32321;SDS011;61553;48.994;8.940;2022-08-02T04:09:29;4.95;;;3.20;;
32321;SDS011;61553;48.994;8.940;2022-08-02T04:11:54;5.25;;;2.70;;
32321;SDS011;61553;48.994;8.940;2022-08-02T04:14:20;4.40;;;2.88;;
32321;SDS011;61553;48.994;8.940;2022-08-02T04:16:49;5.93;;;3.15;;
32321;SDS011;61553;48.994;8.940;2022-08-02T04:19:24;5.95;;;3.22;;
32321;SDS011;61553;48.994;8.940;2022-08-02T04:21:53;4.85;;;3.00;;
32321;SDS011;61553;48.994;8.940;2022-08-02T04:24:25;5.88;;;2.80;;
32321;SDS011;61553;48.994;8.940;2022-08-02T04:26:56;5.72;;;3.05;;
32321;SDS011;61553;48.994;8.940;2022-08-02T04:29:23;6.90;;;4.00;;
32321;SDS011;61553;48.994;8.940;2022-08-02T04:31:50;8.95;;;3.55;;
32321;SDS011;61553;48.994;8.940;2022-08-02T04:34:17;4.30;;;2.83;;
32321;SDS011;61553;48.994;8.940;2022-08-02T04:36:44;4.35;;;2.92;;
32321;SDS011;61553;48.994;8.940;2022-08-02T04:39:10;6.75;;;3.13;;
32321;SDS011;61553;48.994;8.940;2022-08-02T04:41:40;5.70;;;2.92;;
32321;SDS011;61553;48.994;8.940;2022-08-02T04:44:07;5.63;;;3.33;;
32321;SDS011;61553;48.994;8.940;2022-08-02T04:46:36;5.45;;;3.28;;
32321;SDS011;61553;48.994;8.940;2022-08-02T04:49:02;5.95;;;3.30;;
32321;SDS011;61553;48.994;8.940;2022-08-02T04:51:27;10.98;;;3.65;;
32321;SDS011;61553;48.994;8.940;2022-08-02T04:53:53;7.03;;;3.50;;
32321;SDS011;61553;48.994;8.940;2022-08-02T04:56:19;8.77;;;3.83;;
32321;SDS011;61553;48.994;8.940;2022-08-02T04:58:44;5.47;;;2.90;;
32321;SDS011;61553;48.994;8.940;2022-08-02T05:01:10;5.75;;;3.20;;
32321;SDS011;61553;48.994;8.940;2022-08-02T05:03:35;5.10;;;3.20;;
32321;SDS011;61553;48.994;8.940;2022-08-02T05:06:01;5.40;;;3.45;;
32321;SDS011;61553;48.994;8.940;2022-08-02T05:08:27;7.32;;;3.17;;
32321;SDS011;61553;48.994;8.940;2022-08-02T05:10:53;7.20;;;3.03;;
32321;SDS011;61553;48.994;8.940;2022-08-02T05:13:19;7.03;;;3.80;;
32321;SDS011;61553;48.994;8.940;2022-08-02T05:15:47;7.22;;;3.30;;
32321;SDS011;61553;48.994;8.940;2022-08-02T05:18:14;4.43;;;3.15;;
32321;SDS011;61553;48.994;8.940;2022-08-02T05:20:40;5.80;;;3.15;;
32321;SDS011;61553;48.994;8.940;2022-08-02T05:23:05;5.32;;;2.80;;
32321;SDS011;61553;48.994;8.940;2022-08-02T05:25:31;6.68;;;3.30;;
32321;SDS011;61553;48.994;8.940;2022-08-02T05:27:57;4.45;;;3.08;;
32321;SDS011;61553;48.994;8.940;2022-08-02T05:30:22;5.72;;;2.75;;
32321;SDS011;61553;48.994;8.940;2022-08-02T05:32:48;5.75;;;3.00;;
32321;SDS011;61553;48.994;8.940;2022-08-02T05:35:16;4.68;;;2.47;;
32321;SDS011;61553;48.994;8.940;2022-08-02T05:37:44;6.93;;;2.75;;
32321;SDS011;61553;48.994;8.940;2022-08-02T05:40:10;5.38;;;2.80;;
32321;SDS011;61553;48.994;8.940;2022-08-02T05:42:35;3.90;;;2.78;;
32321;SDS011;61553;48.994;8.940;2022-08-02T05:45:01;4.47;;;2.53;;
32321;SDS011;61553;48.994;8.940;2022-08-02T05:47:27;4.60;;;3.05;;
32321;SDS011;61553;48.994;8.940;2022-08-02T05:49:53;5.00;;;2.97;;
32321;SDS011;61553;48.994;8.940;2022-08-02T05:52:19;5.47;;;3.13;;
32321;SDS011;61553;48.994;8.940;2022-08-02T05:55:04;8.63;;;3.58;;
32321;SDS011;61553;48.994;8.940;2022-08-02T06:00:25;7.82;;;3.80;;
32321;SDS011;61553;48.994;8.940;2022-08-02T06:05:34;4.90;;;3.17;;
32321;SDS011;61553;48.994;8.940;2022-08-02T06:08:05;6.35;;;3.05;;
32321;SDS011;61553;48.994;8.940;2022-08-02T06:10:34;6.80;;;3.38;;
32321;SDS011;61553;48.994;8.940;2022-08-02T06:13:06;6.72;;;2.92;;
32321;SDS011;61553;48.994;8.940;2022-08-02T06:15:34;6.82;;;2.88;;
32321;SDS011;61553;48.994;8.940;2022-08-02T06:18:01;9.40;;;2.67;;
32321;SDS011;61553;48.994;8.940;2022-08-02T06:20:29;3.78;;;2.40;;
32321;SDS011;61553;48.994;8.940;2022-08-02T06:23:02;3.65;;;2.33;;
32321;SDS011;61553;48.994;8.940;2022-08-02T06:25:31;4.32;;;2.35;;
32321;SDS011;61553;48.994;8.940;2022-08-02T06:27:59;4.38;;;2.30;;
32321;SDS011;61553;48.994;8.940;2022-08-02T06:30:27;4.22;;;2.17;;
32321;SDS011;61553;48.994;8.940;2022-08-02T06:32:53;5.05;;;2.10;;
32321;SDS011;61553;48.994;8.940;2022-08-02T06:35:19;4.43;;;2.50;;
32321;SDS011;61553;48.994;8.940;2022-08-02T06:37:53;3.47;;;2.13;;
32321;SDS011;61553;48.994;8.940;2022-08-02T06:43:41;6.40;;;2.30;;
32321;SDS011;61553;48.994;8.940;2022-08-02T06:45:49;6.03;;;2.40;;
32321;SDS011;61553;48.994;8.940;2022-08-02T06:48:14;4.13;;;2.30;;
32321;SDS011;61553;48.994;8.940;2022-08-02T06:50:40;6.25;;;2.58;;
32321;SDS011;61553;48.994;8.940;2022-08-02T06:53:08;3.33;;;2.33;;
32321;SDS011;61553;48.994;8.940;2022-08-02T06:55:34;4.55;;;2.00;;
32321;SDS011;61553;48.994;8.940;2022-08-02T06:58:00;6.40;;;2.65;;
32321;SDS011;61553;48.994;8.940;2022-08-02T07:00:27;3.75;;;2.08;;
32321;SDS011;61553;48.994;8.940;2022-08-02T07:02:54;4.88;;;2.20;;
32321;SDS011;61553;48.994;8.940;2022-08-02T07:05:20;4.05;;;1.92;;
32321;SDS011;61553;48.994;8.940;2022-08-02T07:07:45;4.43;;;2.08;;
32321;SDS011;61553;48.994;8.940;2022-08-02T07:10:12;2.40;;;1.90;;
32321;SDS011;61553;48.994;8.940;2022-08-02T07:12:38;3.30;;;1.55;;
32321;SDS011;61553;48.994;8.940;2022-08-02T07:15:05;4.50;;;2.35;;
32321;SDS011;61553;48.994;8.940;2022-08-02T07:17:32;2.92;;;1.80;;
32321;SDS011;61553;48.994;8.940;2022-08-02T07:19:59;3.83;;;2.42;;
32321;SDS011;61553;48.994;8.940;2022-08-02T07:22:25;5.05;;;2.03;;
32321;SDS011;61553;48.994;8.940;2022-08-02T07:24:53;4.03;;;2.10;;
32321;SDS011;61553;48.994;8.940;2022-08-02T07:27:20;4.35;;;2.08;;
32321;SDS011;61553;48.994;8.940;2022-08-02T07:29:45;2.80;;;1.95;;
32321;SDS011;61553;48.994;8.940;2022-08-02T07:32:11;3.80;;;2.03;;
32321;SDS011;61553;48.994;8.940;2022-08-02T07:34:37;5.75;;;2.03;;
32321;SDS011;61553;48.994;8.940;2022-08-02T07:37:03;4.40;;;2.42;;
32321;SDS011;61553;48.994;8.940;2022-08-02T07:39:29;4.15;;;2.35;;
32321;SDS011;61553;48.994;8.940;2022-08-02T07:41:54;5.13;;;2.40;;
32321;SDS011;61553;48.994;8.940;2022-08-02T07:44:20;5.63;;;2.20;;
32321;SDS011;61553;48.994;8.940;2022-08-02T07:46:47;4.07;;;1.98;;
32321;SDS011;61553;48.994;8.940;2022-08-02T07:49:12;3.22;;;2.10;;
32321;SDS011;61553;48.994;8.940;2022-08-02T07:51:43;3.28;;;1.88;;
32321;SDS011;61553;48.994;8.940;2022-08-02T07:54:09;3.00;;;2.10;;
32321;SDS011;61553;48.994;8.940;2022-08-02T07:56:34;4.65;;;2.03;;
32321;SDS011;61553;48.994;8.940;2022-08-02T07:59:01;3.85;;;2.45;;
32321;SDS011;61553;48.994;8.940;2022-08-02T08:01:27;4.22;;;2.33;;
32321;SDS011;61553;48.994;8.940;2022-08-02T08:03:52;3.35;;;2.10;;
32321;SDS011;61553;48.994;8.940;2022-08-02T08:06:18;3.78;;;1.80;;
32321;SDS011;61553;48.994;8.940;2022-08-02T08:08:44;3.70;;;2.28;;
32321;SDS011;61553;48.994;8.940;2022-08-02T08:11:09;3.72;;;2.15;;
32321;SDS011;61553;48.994;8.940;2022-08-02T08:13:35;3.88;;;1.90;;
32321;SDS011;61553;48.994;8.940;2022-08-02T08:16:00;2.35;;;1.85;;
32321;SDS011;61553;48.994;8.940;2022-08-02T08:18:26;4.40;;;2.08;;
32321;SDS011;61553;48.994;8.940;2022-08-02T08:20:52;1.95;;;1.67;;
32321;SDS011;61553;48.994;8.940;2022-08-02T08:23:17;3.85;;;1.80;;
32321;SDS011;61553;48.994;8.940;2022-08-02T08:25:43;4.38;;;2.17;;
32321;SDS011;61553;48.994;8.940;2022-08-02T08:28:08;2.95;;;2.03;;
32321;SDS011;61553;48.994;8.940;2022-08-02T08:30:35;3.85;;;1.95;;
32321;SDS011;61553;48.994;8.940;2022-08-02T08:33:00;2.35;;;1.60;;
32321;SDS011;61553;48.994;8.940;2022-08-02T08:35:26;2.17;;;1.58;;
32321;SDS011;61553;48.994;8.940;2022-08-02T08:37:52;5.28;;;1.80;;
32321;SDS011;61553;48.994;8.940;2022-08-02T08:40:19;5.18;;;1.90;;
32321;SDS011;61553;48.994;8.940;2022-08-02T08:42:44;3.08;;;1.80;;
32321;SDS011;61553;48.994;8.940;2022-08-02T08:45:10;2.53;;;1.60;;
32321;SDS011;61553;48.994;8.940;2022-08-02T08:47:40;3.25;;;1.67;;
32321;SDS011;61553;48.994;8.940;2022-08-02T08:50:07;4.35;;;1.95;;
32321;SDS011;61553;48.994;8.940;2022-08-02T08:52:52;2.70;;;1.63;;
32321;SDS011;61553;48.994;8.940;2022-08-02T08:55:22;2.35;;;1.75;;
32321;SDS011;61553;48.994;8.940;2022-08-02T08:57:50;4.05;;;1.90;;
32321;SDS011;61553;48.994;8.940;2022-08-02T09:00:17;1.98;;;1.50;;
32321;SDS011;61553;48.994;8.940;2022-08-02T09:02:43;5.57;;;1.92;;
32321;SDS011;61553;48.994;8.940;2022-08-02T09:05:09;2.80;;;1.80;;
32321;SDS011;61553;48.994;8.940;2022-08-02T09:07:36;2.83;;;1.98;;
32321;SDS011;61553;48.994;8.940;2022-08-02T09:13:07;2.95;;;2.00;;
32321;SDS011;61553;48.994;8.940;2022-08-02T09:15:33;2.80;;;1.90;;
32321;SDS011;61553;48.994;8.940;2022-08-02T09:17:59;3.33;;;1.83;;
32321;SDS011;61553;48.994;8.940;2022-08-02T09:20:26;4.15;;;2.13;;
32321;SDS011;61553;48.994;8.940;2022-08-02T09:23:08;2.70;;;1.90;;
32321;SDS011;61553;48.994;8.940;2022-08-02T09:25:35;4.15;;;1.98;;
32321;SDS011;61553;48.994;8.940;2022-08-02T09:28:05;3.25;;;1.73;;
32321;SDS011;61553;48.994;8.940;2022-08-02T09:30:31;3.53;;;2.13;;
32321;SDS011;61553;48.994;8.940;2022-08-02T09:33:06;3.75;;;1.98;;
32321;SDS011;61553;48.994;8.940;2022-08-02T09:35:33;4.88;;;1.90;;
32321;SDS011;61553;48.994;8.940;2022-08-02T09:38:10;2.67;;;1.90;;
32321;SDS011;61553;48.994;8.940;2022-08-02T09:40:37;4.38;;;1.98;;
32321;SDS011;61553;48.994;8.940;2022-08-02T09:43:04;5.88;;;2.17;;
32321;SDS011;61553;48.994;8.940;2022-08-02T09:45:31;4.72;;;2.63;;
32321;SDS011;61553;48.994;8.940;2022-08-02T09:48:09;2.63;;;1.77;;
32321;SDS011;61553;48.994;8.940;2022-08-02T09:50:39;6.78;;;2.05;;
32321;SDS011;61553;48.994;8.940;2022-08-02T09:53:12;3.05;;;1.98;;
32321;SDS011;61553;48.994;8.940;2022-08-02T09:55:38;2.90;;;1.83;;
32321;SDS011;61553;48.994;8.940;2022-08-02T09:58:17;3.00;;;2.10;;
32321;SDS011;61553;48.994;8.940;2022-08-02T10:00:51;3.17;;;1.90;;
32321;SDS011;61553;48.994;8.940;2022-08-02T10:03:18;4.22;;;1.75;;
32321;SDS011;61553;48.994;8.940;2022-08-02T10:06:04;3.60;;;1.77;;
32321;SDS011;61553;48.994;8.940;2022-08-02T10:08:30;5.30;;;1.95;;
32321;SDS011;61553;48.994;8.940;2022-08-02T10:10:57;5.15;;;2.10;;
32321;SDS011;61553;48.994;8.940;2022-08-02T10:13:27;3.28;;;1.90;;
32321;SDS011;61553;48.994;8.940;2022-08-02T10:15:58;3.65;;;2.00;;
32321;SDS011;61553;48.994;8.940;2022-08-02T10:18:24;2.35;;;1.70;;
32321;SDS011;61553;48.994;8.940;2022-08-02T10:20:50;4.07;;;1.83;;
32321;SDS011;61553;48.994;8.940;2022-08-02T10:23:18;4.13;;;1.92;;
32321;SDS011;61553;48.994;8.940;2022-08-02T10:25:45;3.92;;;1.80;;
32321;SDS011;61553;48.994;8.940;2022-08-02T10:28:12;4.05;;;2.35;;
32321;SDS011;61553;48.994;8.940;2022-08-02T10:30:41;4.18;;;1.85;;
32321;SDS011;61553;48.994;8.940;2022-08-02T10:33:09;4.07;;;2.00;;
32321;SDS011;61553;48.994;8.940;2022-08-02T10:35:37;3.60;;;2.10;;
32321;SDS011;61553;48.994;8.940;2022-08-02T10:38:08;2.70;;;2.15;;
32321;SDS011;61553;48.994;8.940;2022-08-02T10:40:51;5.07;;;2.15;;
32321;SDS011;61553;48.994;8.940;2022-08-02T10:49:08;3.35;;;2.05;;
32321;SDS011;61553;48.994;8.940;2022-08-02T10:52:03;4.05;;;2.00;;
32321;SDS011;61553;48.994;8.940;2022-08-02T10:56:56;3.30;;;2.00;;
32321;SDS011;61553;48.994;8.940;2022-08-02T11:01:49;3.67;;;2.30;;
32321;SDS011;61553;48.994;8.940;2022-08-02T11:04:14;3.58;;;2.42;;
32321;SDS011;61553;48.994;8.940;2022-08-02T11:09:32;4.50;;;2.10;;
32321;SDS011;61553;48.994;8.940;2022-08-02T11:12:00;5.40;;;2.50;;
32321;SDS011;61553;48.994;8.940;2022-08-02T11:14:34;4.13;;;2.58;;
32321;SDS011;61553;48.994;8.940;2022-08-02T11:17:07;5.82;;;2.45;;
32321;SDS011;61553;48.994;8.940;2022-08-02T11:19:33;3.30;;;2.13;;
32321;SDS011;61553;48.994;8.940;2022-08-02T11:22:00;2.75;;;2.00;;
32321;SDS011;61553;48.994;8.940;2022-08-02T11:24:30;4.22;;;2.25;;
32321;SDS011;61553;48.994;8.940;2022-08-02T11:27:00;3.58;;;1.95;;
32321;SDS011;61553;48.994;8.940;2022-08-02T11:29:31;5.40;;;2.17;;
32321;SDS011;61553;48.994;8.940;2022-08-02T11:31:58;3.30;;;2.28;;
32321;SDS011;61553;48.994;8.940;2022-08-02T11:34:24;4.28;;;2.03;;
32321;SDS011;61553;48.994;8.940;2022-08-02T11:36:50;3.78;;;2.50;;
32321;SDS011;61553;48.994;8.940;2022-08-02T11:39:17;3.80;;;2.20;;
32321;SDS011;61553;48.994;8.940;2022-08-02T11:41:48;4.63;;;2.60;;
32321;SDS011;61553;48.994;8.940;2022-08-02T11:44:22;4.65;;;2.55;;
32321;SDS011;61553;48.994;8.940;2022-08-02T11:46:52;4.05;;;2.53;;
32321;SDS011;61553;48.994;8.940;2022-08-02T11:49:19;3.67;;;2.30;;
32321;SDS011;61553;48.994;8.940;2022-08-02T11:51:55;5.03;;;2.35;;
32321;SDS011;61553;48.994;8.940;2022-08-02T11:54:30;6.35;;;2.20;;
32321;SDS011;61553;48.994;8.940;2022-08-02T11:59:43;5.20;;;2.40;;
32321;SDS011;61553;48.994;8.940;2022-08-02T12:02:10;4.55;;;2.53;;
32321;SDS011;61553;48.994;8.940;2022-08-02T12:04:36;2.88;;;1.65;;
32321;SDS011;61553;48.994;8.940;2022-08-02T12:07:02;3.60;;;2.47;;
32321;SDS011;61553;48.994;8.940;2022-08-02T12:09:30;3.88;;;2.30;;
32321;SDS011;61553;48.994;8.940;2022-08-02T12:11:57;4.15;;;2.47;;
32321;SDS011;61553;48.994;8.940;2022-08-02T12:14:24;3.58;;;2.40;;
32321;SDS011;61553;48.994;8.940;2022-08-02T12:16:51;5.18;;;2.17;;
32321;SDS011;61553;48.994;8.940;2022-08-02T12:19:36;4.00;;;2.42;;
32321;SDS011;61553;48.994;8.940;2022-08-02T12:22:09;4.50;;;2.85;;
32321;SDS011;61553;48.994;8.940;2022-08-02T12:24:40;3.10;;;2.22;;
32321;SDS011;61553;48.994;8.940;2022-08-02T12:27:08;5.00;;;2.30;;
32321;SDS011;61553;48.994;8.940;2022-08-02T12:29:38;4.07;;;2.50;;
32321;SDS011;61553;48.994;8.940;2022-08-02T12:32:06;3.95;;;2.47;;
32321;SDS011;61553;48.994;8.940;2022-08-02T12:34:33;4.05;;;2.25;;
32321;SDS011;61553;48.994;8.940;2022-08-02T12:37:00;3.85;;;2.25;;
32321;SDS011;61553;48.994;8.940;2022-08-02T12:42:21;2.63;;;2.00;;
32321;SDS011;61553;48.994;8.940;2022-08-02T12:44:50;3.33;;;2.20;;
32321;SDS011;61553;48.994;8.940;2022-08-02T12:47:22;3.67;;;2.47;;
32321;SDS011;61553;48.994;8.940;2022-08-02T12:55:31;4.75;;;2.10;;
32321;SDS011;61553;48.994;8.940;2022-08-02T12:57:58;5.07;;;1.85;;
32321;SDS011;61553;48.994;8.940;2022-08-02T13:00:29;3.10;;;2.22;;
32321;SDS011;61553;48.994;8.940;2022-08-02T13:02:56;2.60;;;2.00;;
32321;SDS011;61553;48.994;8.940;2022-08-02T13:05:23;3.40;;;2.00;;
32321;SDS011;61553;48.994;8.940;2022-08-02T13:07:49;3.00;;;2.03;;
32321;SDS011;61553;48.994;8.940;2022-08-02T13:10:15;3.35;;;1.88;;
32321;SDS011;61553;48.994;8.940;2022-08-02T13:12:41;3.30;;;2.10;;
32321;SDS011;61553;48.994;8.940;2022-08-02T13:15:07;3.72;;;2.05;;
32321;SDS011;61553;48.994;8.940;2022-08-02T13:17:34;3.83;;;2.33;;
32321;SDS011;61553;48.994;8.940;2022-08-02T13:20:00;4.97;;;2.25;;
32321;SDS011;61553;48.994;8.940;2022-08-02T13:22:25;2.95;;;1.90;;
32321;SDS011;61553;48.994;8.940;2022-08-02T13:24:51;4.95;;;2.00;;
32321;SDS011;61553;48.994;8.940;2022-08-02T13:27:17;2.90;;;2.05;;
32321;SDS011;61553;48.994;8.940;2022-08-02T13:29:43;3.03;;;1.98;;
32321;SDS011;61553;48.994;8.940;2022-08-02T13:32:08;4.30;;;2.30;;
32321;SDS011;61553;48.994;8.940;2022-08-02T13:34:34;3.85;;;1.90;;
32321;SDS011;61553;48.994;8.940;2022-08-02T13:37:00;4.55;;;2.40;;
32321;SDS011;61553;48.994;8.940;2022-08-02T13:39:26;3.75;;;1.95;;
32321;SDS011;61553;48.994;8.940;2022-08-02T13:41:52;4.60;;;2.38;;
32321;SDS011;61553;48.994;8.940;2022-08-02T13:44:18;3.72;;;2.00;;
32321;SDS011;61553;48.994;8.940;2022-08-02T13:46:43;4.25;;;1.95;;
32321;SDS011;61553;48.994;8.940;2022-08-02T13:49:09;2.85;;;1.85;;
32321;SDS011;61553;48.994;8.940;2022-08-02T13:51:34;2.22;;;1.90;;
32321;SDS011;61553;48.994;8.940;2022-08-02T13:54:00;6.00;;;2.10;;
32321;SDS011;61553;48.994;8.940;2022-08-02T13:56:26;3.75;;;1.75;;
32321;SDS011;61553;48.994;8.940;2022-08-02T13:58:51;3.67;;;1.90;;
32321;SDS011;61553;48.994;8.940;2022-08-02T14:01:17;4.28;;;1.77;;
32321;SDS011;61553;48.994;8.940;2022-08-02T14:03:43;3.35;;;2.00;;
32321;SDS011;61553;48.994;8.940;2022-08-02T14:06:08;7.75;;;2.40;;
32321;SDS011;61553;48.994;8.940;2022-08-02T14:08:35;2.97;;;1.50;;
32321;SDS011;61553;48.994;8.940;2022-08-02T14:11:02;3.10;;;1.80;;
32321;SDS011;61553;48.994;8.940;2022-08-02T14:13:28;3.15;;;1.80;;
32321;SDS011;61553;48.994;8.940;2022-08-02T14:15:54;3.42;;;2.00;;
32321;SDS011;61553;48.994;8.940;2022-08-02T14:18:20;4.97;;;2.00;;
32321;SDS011;61553;48.994;8.940;2022-08-02T14:20:46;2.58;;;1.80;;
32321;SDS011;61553;48.994;8.940;2022-08-02T14:23:12;4.80;;;2.00;;
32321;SDS011;61553;48.994;8.940;2022-08-02T14:25:38;3.67;;;2.03;;
32321;SDS011;61553;48.994;8.940;2022-08-02T14:28:04;2.97;;;2.00;;
32321;SDS011;61553;48.994;8.940;2022-08-02T14:30:29;4.25;;;1.80;;
32321;SDS011;61553;48.994;8.940;2022-08-02T14:32:55;4.28;;;2.10;;
32321;SDS011;61553;48.994;8.940;2022-08-02T14:35:21;3.85;;;2.00;;
32321;SDS011;61553;48.994;8.940;2022-08-02T14:37:46;4.68;;;1.90;;
32321;SDS011;61553;48.994;8.940;2022-08-02T14:40:12;3.30;;;2.03;;
32321;SDS011;61553;48.994;8.940;2022-08-02T14:42:38;5.75;;;2.45;;
32321;SDS011;61553;48.994;8.940;2022-08-02T14:45:04;2.65;;;1.80;;
32321;SDS011;61553;48.994;8.940;2022-08-02T14:47:30;3.03;;;2.05;;
32321;SDS011;61553;48.994;8.940;2022-08-02T14:49:56;2.40;;;1.70;;
32321;SDS011;61553;48.994;8.940;2022-08-02T14:52:21;6.07;;;2.10;;
32321;SDS011;61553;48.994;8.940;2022-08-02T14:54:47;6.50;;;2.30;;
32321;SDS011;61553;48.994;8.940;2022-08-02T14:57:13;4.30;;;2.15;;
32321;SDS011;61553;48.994;8.940;2022-08-02T14:59:39;3.60;;;2.00;;
32321;SDS011;61553;48.994;8.940;2022-08-02T15:02:05;2.78;;;1.83;;
32321;SDS011;61553;48.994;8.940;2022-08-02T15:04:31;2.75;;;1.95;;
32321;SDS011;61553;48.994;8.940;2022-08-02T15:06:58;4.32;;;2.22;;
32321;SDS011;61553;48.994;8.940;2022-08-02T15:09:24;4.30;;;1.85;;
32321;SDS011;61553;48.994;8.940;2022-08-02T15:11:50;5.00;;;1.90;;
32321;SDS011;61553;48.994;8.940;2022-08-02T15:14:17;3.15;;;2.00;;
32321;SDS011;61553;48.994;8.940;2022-08-02T15:16:44;2.72;;;2.00;;
32321;SDS011;61553;48.994;8.940;2022-08-02T15:19:09;4.00;;;2.13;;
32321;SDS011;61553;48.994;8.940;2022-08-02T15:21:35;2.50;;;1.70;;
32321;SDS011;61553;48.994;8.940;2022-08-02T15:24:01;4.88;;;2.20;;
32321;SDS011;61553;48.994;8.940;2022-08-02T15:26:26;3.35;;;2.00;;
32321;SDS011;61553;48.994;8.940;2022-08-02T15:28:52;3.78;;;2.28;;
32321;SDS011;61553;48.994;8.940;2022-08-02T15:31:17;5.93;;;1.77;;